Terminal Aerodrome Forecast
Issued by NWS Buffalo, NY

Home | Current Version | Previous Version | Text Only | Print | Product List | Glossary On
Versions: 1 2 3 4 5 6 7 8 9 10 11 12 13 14 15 16 17 18 19 20 21 22 23 24 25 26 27
000
FTUS41 KBUF 270520
TAFBUF
TAF
KBUF 270520Z 2706/2806 18010KT P6SM OVC060
     FM270900 18009KT 6SM -SHRA BKN025
     FM271400 21007KT 2SM BR VCSH BKN007 OVC015
     FM271700 23008KT P6SM OVC015
     FM280300 21006KT P6SM OVC030=

USA.gov is the U.S. government's official web portal to all federal, state and local government web resources and services.